Terminal Aerodrome Forecast
Issued by NWS Milwaukee/Sullivan, WI

Home | Current Version | Previous Version | Text Only | Print | Product List | Glossary On
Versions: 1 2 3 4 5 6 7 8 9 10 11 12 13 14 15 16 17 18 19 20 21 22 23 24 25 26 27 28 29 30 31 32 33 34 35
000
FTUS43 KMKX 240520
TAFMSN
TAF
KMSN 240520Z 2406/2506 00000KT 4SM BR OVC005
      TEMPO 2406/2409 2SM BR
     FM240900 00000KT 1SM BR OVC003
     FM241100 00000KT 1/2SM FG OVC002
     FM241400 VRB03KT 2SM BR BKN005
     FM241600 20005KT P6SM SCT010 BKN200
     FM242200 20008KT P6SM BKN060
     FM250300 21005KT 6SM BR SCT015=

USA.gov is the U.S. government's official web portal to all federal, state and local government web resources and services.